createdAt,value
2022-09-12T00:06:18.112Z,101007.75
2022-09-12T00:08:56.381Z,101014.31
2022-09-12T00:11:30.607Z,101014.69
2022-09-12T00:16:36.035Z,101034.28
2022-09-12T00:19:06.615Z,101035.78
2022-09-12T00:21:38.290Z,101034.16
2022-09-12T00:24:08.693Z,101037.00
2022-09-12T00:26:38.057Z,101037.00
2022-09-12T00:29:12.040Z,101023.22
2022-09-12T00:31:43.122Z,101021.66
2022-09-12T00:34:16.774Z,101022.56
2022-09-12T00:36:56.707Z,101026.69
2022-09-12T00:39:28.783Z,101019.19
2022-09-12T00:42:15.303Z,101019.69
2022-09-12T00:44:53.971Z,101024.16
2022-09-12T00:47:30.579Z,101009.41
2022-09-12T00:50:10.712Z,100998.41
2022-09-12T00:52:55.595Z,100996.22
2022-09-12T00:55:35.294Z,100986.78
2022-09-12T00:58:28.373Z,100983.63
2022-09-12T01:01:02.724Z,100977.94
2022-09-12T01:03:32.774Z,100986.69
2022-09-12T01:06:17.161Z,100986.69
2022-09-12T01:08:52.337Z,100998.00
2022-09-12T01:11:24.086Z,100994.09
2022-09-12T01:13:53.597Z,101003.91
2022-09-12T01:16:25.753Z,100996.16
2022-09-12T01:19:29.067Z,100998.66
2022-09-12T01:22:32.219Z,101027.25
2022-09-12T01:25:08.064Z,101046.31
2022-09-12T01:28:04.743Z,101050.63
2022-09-12T01:31:18.085Z,101062.00
2022-09-12T01:34:07.724Z,101065.19
2022-09-12T01:36:43.275Z,101061.94
2022-09-12T01:39:22.332Z,101043.22
2022-09-12T01:42:32.704Z,101035.88
2022-09-12T01:45:18.260Z,101032.88
2022-09-12T01:48:36.775Z,101034.44
2022-09-12T01:51:19.235Z,101051.09
2022-09-12T01:54:14.923Z,101070.16
2022-09-12T01:56:48.716Z,101070.81
2022-09-12T01:59:42.330Z,101078.59
2022-09-12T02:02:50.019Z,101088.59
2022-09-12T02:05:23.820Z,101088.16
2022-09-12T02:08:05.959Z,101083.03
2022-09-12T02:10:44.910Z,101079.34
2022-09-12T02:13:32.360Z,101077.00
2022-09-12T02:16:11.569Z,101086.41
2022-09-12T02:18:47.174Z,101088.00
2022-09-12T02:21:20.008Z,101099.72
2022-09-12T02:23:55.351Z,101096.69
2022-09-12T02:26:39.128Z,101090.16
2022-09-12T02:29:08.457Z,101091.41
2022-09-12T02:32:01.987Z,101105.94
2022-09-12T02:34:40.726Z,101112.00
2022-09-12T02:37:28.572Z,101084.44
2022-09-12T02:40:03.264Z,101089.91
2022-09-12T02:42:32.772Z,101090.81
2022-09-12T02:45:03.147Z,101070.47
2022-09-12T02:47:51.166Z,101075.44
2022-09-12T02:50:20.766Z,101086.88
2022-09-12T02:52:50.224Z,101079.66
2022-09-12T02:55:19.694Z,101083.34
2022-09-12T02:57:48.875Z,101082.69
2022-09-12T03:00:18.197Z,101099.59
2022-09-12T03:03:08.486Z,101100.97
2022-09-12T03:06:03.045Z,101110.22
2022-09-12T03:08:52.236Z,101104.13
2022-09-12T03:11:54.056Z,101118.47
2022-09-12T03:14:31.399Z,101118.69
2022-09-12T03:17:20.299Z,101126.00
2022-09-12T03:19:56.524Z,101135.72
2022-09-12T03:22:25.761Z,101133.00
2022-09-12T03:25:04.025Z,101135.59
2022-09-12T03:27:40.645Z,101133.34
2022-09-12T03:30:11.827Z,101130.31
2022-09-12T03:32:53.134Z,101126.00
2022-09-12T03:35:25.668Z,101126.66
2022-09-12T03:37:55.024Z,101137.41
2022-09-12T03:40:24.683Z,101139.66
2022-09-12T03:42:54.035Z,101145.16
2022-09-12T03:45:23.398Z,101144.41
2022-09-12T03:47:52.492Z,101140.44
2022-09-12T03:50:21.887Z,101151.97
2022-09-12T03:52:51.405Z,101148.25
2022-09-12T03:55:20.625Z,101157.69
2022-09-12T03:57:49.785Z,101160.72
2022-09-12T04:00:19.940Z,101155.78
2022-09-12T04:02:49.348Z,101153.75
2022-09-12T04:05:18.408Z,101159.06
2022-09-12T04:07:51.319Z,101150.84
2022-09-12T04:10:35.376Z,101144.28
2022-09-12T04:13:19.581Z,101146.75
2022-09-12T04:16:03.367Z,101153.88
2022-09-12T04:18:33.219Z,101156.69
2022-09-12T04:21:12.626Z,101164.56
2022-09-12T04:23:42.185Z,101172.09
2022-09-12T04:26:14.486Z,101169.06
2022-09-12T04:28:44.178Z,101159.38
2022-09-12T04:31:21.661Z,101154.97
2022-09-12T04:33:58.997Z,101167.28
2022-09-12T04:36:32.076Z,101176.94
2022-09-12T04:39:03.019Z,101182.88
2022-09-12T04:41:35.363Z,101184.13
2022-09-12T04:44:08.366Z,101191.81
2022-09-12T04:46:39.761Z,101186.03
2022-09-12T04:49:11.227Z,101187.63
2022-09-12T04:51:42.781Z,101188.88
2022-09-12T04:54:19.887Z,101187.47
2022-09-12T04:56:51.873Z,101169.91
2022-09-12T04:59:22.986Z,101169.28
2022-09-12T05:01:52.985Z,101162.50
2022-09-12T05:04:22.478Z,101168.78
2022-09-12T05:06:51.839Z,101157.88
2022-09-12T05:09:24.398Z,101152.78
2022-09-12T05:12:04.923Z,101166.75
2022-09-12T05:14:35.739Z,101182.72
2022-09-12T05:17:06.928Z,101175.34
2022-09-12T05:19:36.359Z,101163.75
2022-09-12T05:22:07.585Z,101158.28
2022-09-12T05:24:38.773Z,101166.22
2022-09-12T05:27:08.324Z,101168.69
2022-09-12T05:29:37.442Z,101160.75
2022-09-12T05:32:06.794Z,101144.78
2022-09-12T05:34:35.961Z,101136.31
2022-09-12T05:37:05.296Z,101134.91
2022-09-12T05:39:34.742Z,101136.78
2022-09-12T05:42:07.452Z,101133.69
2022-09-12T05:44:36.545Z,101138.41
2022-09-12T05:47:05.785Z,101125.78
2022-09-12T05:49:37.164Z,101108.34
2022-09-12T05:52:06.386Z,101083.00
2022-09-12T05:54:35.562Z,101088.31
2022-09-12T05:57:04.780Z,101093.72
2022-09-12T05:59:33.905Z,101102.09
2022-09-12T06:02:06.646Z,101090.06
2022-09-12T06:04:43.129Z,101097.44
2022-09-12T06:07:12.809Z,101093.94
2022-09-12T06:09:45.155Z,101081.94
2022-09-12T06:12:14.693Z,101079.47
2022-09-12T06:14:44.401Z,101074.56
2022-09-12T06:17:13.753Z,101082.47
2022-09-12T06:19:43.517Z,101080.56
2022-09-12T06:22:12.978Z,101094.25
2022-09-12T06:24:42.291Z,101094.25
2022-09-12T06:27:12.444Z,101104.81
2022-09-12T06:29:41.716Z,101109.75
2022-09-12T06:32:12.087Z,101126.78
2022-09-12T06:34:41.480Z,101123.44
2022-09-12T06:37:10.836Z,101138.19
2022-09-12T06:39:40.367Z,101133.47
2022-09-12T06:42:09.609Z,101134.59
2022-09-12T06:44:38.990Z,101105.69
2022-09-12T06:47:10.483Z,101100.75
2022-09-12T06:49:39.714Z,101115.00
2022-09-12T06:52:08.800Z,101117.47
2022-09-12T06:54:38.018Z,101125.78
2022-09-12T06:57:08.185Z,101143.63
2022-09-12T06:59:37.369Z,101146.94
2022-09-12T07:02:06.561Z,101152.41
2022-09-12T07:04:37.587Z,101155.56
2022-09-12T07:07:07.378Z,101155.38
2022-09-12T07:09:36.630Z,101147.03
2022-09-12T07:12:07.132Z,101154.53
2022-09-12T07:14:36.806Z,101169.97
2022-09-12T07:17:08.263Z,101166.81
2022-09-12T07:19:38.335Z,101178.63
2022-09-12T07:22:07.716Z,101170.84
2022-09-12T07:24:36.814Z,101166.25
2022-09-12T07:27:05.989Z,101180.59
2022-09-12T07:29:37.750Z,101171.41
2022-09-12T07:32:08.048Z,101181.81
2022-09-12T07:34:37.729Z,101174.94
2022-09-12T07:37:06.962Z,101164.41
2022-09-12T07:39:36.368Z,101151.03
2022-09-12T07:42:05.841Z,101139.00
2022-09-12T07:44:35.086Z,101145.34
2022-09-12T07:47:04.739Z,101147.72
2022-09-12T07:49:34.073Z,101163.16
2022-09-12T07:52:03.539Z,101164.56
2022-09-12T07:54:34.325Z,101171.38
2022-09-12T07:57:04.461Z,101173.88
2022-09-12T07:59:51.887Z,101161.97
2022-09-12T08:02:21.975Z,101152.00
2022-09-12T08:04:52.317Z,101152.00
2022-09-12T08:07:22.040Z,101154.44
2022-09-12T08:09:51.242Z,101145.34
2022-09-12T08:12:21.271Z,101157.97
2022-09-12T08:14:50.561Z,101152.56
2022-09-12T08:17:19.780Z,101145.81
2022-09-12T08:19:49.366Z,101137.81
2022-09-12T08:22:22.893Z,101142.19
2022-09-12T08:24:55.019Z,101136.00
2022-09-12T08:27:24.308Z,101130.06
2022-09-12T08:29:54.590Z,101119.59
2022-09-12T08:32:23.800Z,101121.94
2022-09-12T08:34:52.868Z,101108.75
2022-09-12T08:37:22.277Z,101111.06
2022-09-12T08:39:52.265Z,101106.16
2022-09-12T08:42:44.939Z,101097.72
2022-09-12T08:45:21.641Z,101095.91
2022-09-12T08:47:51.833Z,101076.28
2022-09-12T08:50:23.483Z,101075.44
2022-09-12T08:53:14.350Z,101076.38
2022-09-12T08:55:59.731Z,101099.03
2022-09-12T08:58:30.535Z,101103.91
2022-09-12T09:01:15.342Z,101087.13
2022-09-12T09:04:06.761Z,101073.09
2022-09-12T09:06:55.815Z,101023.91
2022-09-12T09:10:16.832Z,101031.66
2022-09-12T09:12:58.949Z,101055.88
2022-09-12T09:16:00.333Z,101055.16
2022-09-12T09:18:36.664Z,101058.97
2022-09-12T09:21:25.569Z,101055.53
2022-09-12T09:24:03.435Z,101064.59
2022-09-12T09:27:11.054Z,101068.34
2022-09-12T09:29:53.235Z,101070.16
2022-09-12T09:32:34.796Z,101079.22
2022-09-12T09:35:32.140Z,101068.56
2022-09-12T09:38:46.953Z,101074.47
2022-09-12T09:41:37.195Z,101083.31
2022-09-12T09:46:36.096Z,101079.38
2022-09-12T09:49:08.076Z,101079.16
2022-09-12T09:51:40.542Z,101074.78
2022-09-12T09:54:24.486Z,101088.19
2022-09-12T09:56:53.725Z,101097.13
2022-09-12T09:59:37.164Z,101101.88
2022-09-12T10:02:15.494Z,101101.09
2022-09-12T10:04:56.782Z,101092.75
2022-09-12T10:07:27.467Z,101107.44
2022-09-12T10:10:29.380Z,101116.25
2022-09-12T10:13:24.757Z,101101.25
2022-09-12T10:16:03.579Z,101104.41
2022-09-12T10:18:43.223Z,101106.78
2022-09-12T10:21:41.500Z,101101.44
2022-09-12T10:24:30.332Z,101122.84
2022-09-12T10:27:15.538Z,101122.78
2022-09-12T10:29:50.926Z,101117.81
2022-09-12T10:32:31.037Z,101116.38
2022-09-12T10:35:07.230Z,101100.75
2022-09-12T10:37:41.537Z,101101.88
2022-09-12T10:40:29.774Z,101122.72
2022-09-12T10:43:01.448Z,101125.88
2022-09-12T10:45:36.833Z,101127.59
2022-09-12T10:48:27.898Z,101130.75
2022-09-12T10:51:00.385Z,101137.16
2022-09-12T10:53:49.858Z,101142.63
2022-09-12T10:57:01.909Z,101127.94
2022-09-12T10:59:54.368Z,101141.50
2022-09-12T11:02:48.486Z,101146.03
2022-09-12T11:05:33.017Z,101154.09
2022-09-12T11:08:13.884Z,101161.88
2022-09-12T11:11:15.496Z,101168.25
2022-09-12T11:14:39.934Z,101156.28
2022-09-12T11:17:47.219Z,101144.16
2022-09-12T11:20:55.013Z,101145.03
2022-09-12T11:23:36.447Z,101151.41
2022-09-12T11:26:18.200Z,101146.81
2022-09-12T11:29:31.712Z,101149.72
2022-09-12T11:32:22.829Z,101142.44
2022-09-12T11:35:17.535Z,101129.38
2022-09-12T11:38:25.926Z,101101.06
2022-09-12T11:41:00.598Z,101104.34
2022-09-12T11:43:52.716Z,101108.81
2022-09-12T11:46:40.189Z,101112.78
2022-09-12T11:49:14.787Z,101119.28
2022-09-12T11:52:22.127Z,101122.56
2022-09-12T11:55:18.047Z,101135.16
2022-09-12T11:58:08.843Z,101138.97
2022-09-12T12:00:45.849Z,101147.97
2022-09-12T12:03:38.522Z,101144.69
2022-09-12T12:06:22.505Z,101145.31
2022-09-12T12:08:51.917Z,101136.47
2022-09-12T12:11:30.182Z,101137.13
2022-09-12T12:14:22.933Z,101147.50
2022-09-12T12:16:52.545Z,101134.00
2022-09-12T12:19:40.007Z,101129.53
2022-09-12T12:22:18.202Z,101117.09
2022-09-12T12:25:04.296Z,101101.09
2022-09-12T12:27:56.456Z,101115.66
2022-09-12T12:30:31.907Z,101104.34
2022-09-12T12:33:09.608Z,101095.34
2022-09-12T12:35:47.212Z,101100.63
2022-09-12T12:38:31.036Z,101095.03
2022-09-12T12:41:18.547Z,101088.94
2022-09-12T12:43:58.525Z,101083.66
2022-09-12T12:46:30.458Z,101084.78
2022-09-12T12:49:25.837Z,101089.41
2022-09-12T12:51:57.648Z,101077.63
2022-09-12T12:54:35.179Z,101084.53
2022-09-12T12:57:17.266Z,101073.22
2022-09-12T12:59:57.586Z,101064.66
2022-09-12T13:02:38.421Z,101063.75
2022-09-12T13:05:23.038Z,101067.75
2022-09-12T13:08:08.305Z,101061.50
2022-09-12T13:10:38.739Z,101061.91
2022-09-12T13:13:10.979Z,101051.00
2022-09-12T13:15:40.641Z,101046.94
2022-09-12T13:18:16.722Z,101045.72
2022-09-12T13:20:56.861Z,101055.50
2022-09-12T13:23:33.634Z,101050.25
2022-09-12T13:26:04.319Z,101040.06
2022-09-12T13:28:33.763Z,101042.88
2022-09-12T13:31:27.128Z,101034.41
2022-09-12T13:34:00.862Z,101036.13
2022-09-12T13:36:56.386Z,101039.59
2022-09-12T13:39:59.754Z,101036.97
2022-09-12T13:42:43.530Z,101037.09
2022-09-12T13:45:28.728Z,101033.91
2022-09-12T13:48:02.885Z,101039.56
2022-09-12T13:50:59.169Z,101054.63
2022-09-12T13:53:33.378Z,101061.00
2022-09-12T13:56:02.915Z,101065.78
2022-09-12T13:58:36.125Z,101071.47
2022-09-12T14:01:14.982Z,101066.84
2022-09-12T14:04:14.685Z,101072.97
2022-09-12T14:06:50.995Z,101073.56
2022-09-12T14:09:34.620Z,101079.72
2022-09-12T14:12:04.263Z,101065.69
2022-09-12T14:14:47.140Z,101065.53
2022-09-12T14:17:23.027Z,101069.47
2022-09-12T14:19:53.747Z,101079.59
2022-09-12T14:22:23.591Z,101068.69
2022-09-12T14:24:54.795Z,101051.00
2022-09-12T14:27:31.104Z,101075.69
2022-09-12T14:30:35.694Z,101071.75
2022-09-12T14:33:13.668Z,101071.44
2022-09-12T14:35:45.092Z,101081.13
2022-09-12T14:38:17.339Z,101087.09
2022-09-12T14:40:51.606Z,101076.59
2022-09-12T14:43:28.250Z,101083.16
2022-09-12T14:46:16.174Z,101086.38
2022-09-12T14:48:51.024Z,101096.50
2022-09-12T14:51:26.168Z,101090.94
2022-09-12T14:53:56.015Z,101087.41
2022-09-12T14:56:43.389Z,101104.63
2022-09-12T14:59:32.190Z,101121.16
2022-09-12T15:03:01.418Z,101125.50
2022-09-12T15:10:12.305Z,101124.91
2022-09-12T15:12:50.918Z,101128.53
2022-09-12T15:15:43.139Z,101127.94
2022-09-12T15:18:14.777Z,101133.22
2022-09-12T15:20:46.793Z,101138.09
2022-09-12T15:23:34.039Z,101145.94
2022-09-12T15:26:04.881Z,101137.50
2022-09-12T15:28:40.614Z,101137.25
2022-09-12T15:31:32.219Z,101130.31
2022-09-12T15:34:20.443Z,101125.22
2022-09-12T15:40:56.752Z,101114.91
2022-09-12T15:43:27.127Z,101122.91
2022-09-12T15:45:56.505Z,101133.09
2022-09-12T15:48:25.639Z,101124.38
2022-09-12T15:50:55.194Z,101122.25
2022-09-12T15:53:24.560Z,101137.91
2022-09-12T15:55:53.782Z,101139.56
2022-09-12T15:58:23.428Z,101123.41
2022-09-12T16:00:52.694Z,101116.25
2022-09-12T16:03:31.840Z,101126.47
2022-09-12T16:06:04.118Z,101119.47
2022-09-12T16:08:33.881Z,101124.00
2022-09-12T16:11:27.031Z,101120.59
2022-09-12T16:13:57.694Z,101108.75
2022-09-12T16:16:27.175Z,101107.72
2022-09-12T16:18:56.512Z,101111.63
2022-09-12T16:21:27.066Z,101106.31
2022-09-12T16:23:56.378Z,101111.63
2022-09-12T16:26:25.424Z,101123.78
2022-09-12T16:29:01.631Z,101115.59
2022-09-12T16:31:31.914Z,101124.44
2022-09-12T16:34:01.209Z,101129.84
2022-09-12T16:36:30.970Z,101140.81
2022-09-12T16:39:00.339Z,101151.06
2022-09-12T16:41:29.704Z,101142.53
2022-09-12T16:44:02.610Z,101139.25
2022-09-12T16:46:31.860Z,101143.09
2022-09-12T16:49:02.182Z,101139.81
2022-09-12T16:51:38.867Z,101140.59
2022-09-12T16:54:08.198Z,101150.19
2022-09-12T16:56:37.281Z,101157.16
2022-09-12T16:59:07.546Z,101153.34
2022-09-12T17:01:37.254Z,101148.50
2022-09-12T17:04:06.628Z,101151.19
2022-09-12T17:06:36.034Z,101154.94
2022-09-12T17:09:05.810Z,101159.31
2022-09-12T17:11:40.191Z,101154.94
2022-09-12T17:14:09.948Z,101161.75
2022-09-12T17:16:49.254Z,101153.53
2022-09-12T17:19:25.347Z,101159.94
2022-09-12T17:21:55.262Z,101167.41
2022-09-12T17:25:01.703Z,101161.13
2022-09-12T17:27:33.816Z,101160.50
2022-09-12T17:30:11.300Z,101164.97
2022-09-12T17:32:42.581Z,101157.69
2022-09-12T17:35:15.734Z,101159.75
2022-09-12T17:37:47.449Z,101160.31
2022-09-12T17:40:48.814Z,101170.84
2022-09-12T17:43:29.113Z,101168.78
2022-09-12T17:45:59.831Z,101163.72
2022-09-12T17:48:46.384Z,101167.59
2022-09-12T17:51:48.782Z,101169.41
2022-09-12T17:54:26.474Z,101168.63
2022-09-12T17:56:57.153Z,101164.78
2022-09-12T17:59:26.659Z,101163.97
2022-09-12T18:02:15.218Z,101167.38
2022-09-12T18:04:49.260Z,101167.13
2022-09-12T18:07:29.468Z,101162.69
2022-09-12T18:09:59.530Z,101156.19
2022-09-12T18:12:28.952Z,101150.88
2022-09-12T18:14:58.100Z,101152.28
2022-09-12T18:17:28.336Z,101152.25
2022-09-12T18:19:57.900Z,101151.28
2022-09-12T18:22:27.043Z,101154.81
2022-09-12T18:24:56.243Z,101146.50
2022-09-12T18:27:25.402Z,101142.50
2022-09-12T18:30:17.122Z,101131.41
2022-09-12T18:32:53.426Z,101125.91
2022-09-12T18:35:28.238Z,101127.00
2022-09-12T18:37:57.947Z,101120.66
2022-09-12T18:40:27.452Z,101120.31
2022-09-12T18:42:57.313Z,101117.22
2022-09-12T18:45:33.115Z,101123.06
2022-09-12T18:48:06.948Z,101114.75
2022-09-12T18:50:36.158Z,101101.13
2022-09-12T18:53:05.374Z,101106.63
2022-09-12T18:55:37.948Z,101107.69
2022-09-12T18:58:10.378Z,101107.00
2022-09-12T19:00:41.891Z,101102.41
2022-09-12T19:03:11.518Z,101098.03
2022-09-12T19:05:40.949Z,101092.56
2022-09-12T19:08:10.343Z,101093.28
2022-09-12T19:10:39.898Z,101077.78
2022-09-12T19:13:11.861Z,101076.69
2022-09-12T19:15:42.946Z,101076.59
2022-09-12T19:18:16.750Z,101063.50
2022-09-12T19:20:53.124Z,101061.22
2022-09-12T19:23:22.119Z,101053.56
2022-09-12T19:25:59.521Z,101051.53
2022-09-12T19:28:29.789Z,101048.59
2022-09-12T19:31:05.042Z,101043.16
2022-09-12T19:33:34.762Z,101036.41
2022-09-12T19:36:17.508Z,101040.59
2022-09-12T19:38:59.638Z,101027.50
2022-09-12T19:41:28.970Z,101025.19
2022-09-12T19:43:58.868Z,101024.91
2022-09-12T19:46:28.238Z,101022.03
2022-09-12T19:48:57.576Z,101010.75
2022-09-12T19:51:26.882Z,101010.06
2022-09-12T19:53:56.278Z,101005.50
2022-09-12T19:56:25.371Z,101006.75
2022-09-12T19:58:56.718Z,101003.13
2022-09-12T20:01:31.875Z,100996.94
2022-09-12T20:04:07.513Z,101002.75
2022-09-12T20:06:37.553Z,100997.22
2022-09-12T20:09:09.998Z,100991.16
2022-09-12T20:23:42.448Z,100957.63
2022-09-12T20:26:25.824Z,100959.13
2022-09-12T20:29:02.163Z,100955.28
2022-09-12T20:31:35.470Z,100949.47
2022-09-12T20:34:05.852Z,100949.84
2022-09-12T20:36:35.347Z,100946.63
2022-09-12T20:39:04.671Z,100942.16
2022-09-12T20:41:37.125Z,100941.56
2022-09-12T20:44:06.478Z,100941.75
2022-09-12T20:46:35.927Z,100929.72
2022-09-12T20:49:06.166Z,100933.56
2022-09-12T20:51:35.840Z,100929.78
2022-09-12T20:54:08.997Z,100920.03
2022-09-12T20:56:39.270Z,100923.97
2022-09-12T20:59:20.824Z,100916.25
2022-09-12T21:01:56.458Z,100920.34
2022-09-12T21:04:26.188Z,100914.97
2022-09-12T21:06:55.606Z,100915.84
2022-09-12T21:09:24.977Z,100909.00
2022-09-12T21:11:54.467Z,100894.16
2022-09-12T21:14:23.703Z,100894.06
2022-09-12T21:16:53.346Z,100881.94
2022-09-12T21:19:47.705Z,100878.50
2022-09-12T21:22:21.158Z,100876.28
2022-09-12T21:24:50.691Z,100872.75
2022-09-12T21:27:21.291Z,100870.63
2022-09-12T21:29:51.454Z,100875.00
2022-09-12T21:32:22.296Z,100871.88
2022-09-12T21:34:51.535Z,100868.72
2022-09-12T21:37:23.842Z,100865.41
2022-09-12T21:39:53.030Z,100865.41
2022-09-12T21:42:22.176Z,100856.06
2022-09-12T21:44:53.012Z,100854.56
2022-09-12T21:47:22.127Z,100851.97
2022-09-12T21:49:53.677Z,100851.19
2022-09-12T21:52:23.020Z,100843.88
2022-09-12T21:54:52.164Z,100837.53
2022-09-12T21:57:23.025Z,100834.03
2022-09-12T21:59:52.395Z,100828.41
2022-09-12T22:02:23.972Z,100831.69
2022-09-12T22:04:53.369Z,100826.75
2022-09-12T22:07:24.254Z,100822.25
2022-09-12T22:09:53.843Z,100829.94
2022-09-12T22:12:23.375Z,100825.38
2022-09-12T22:14:52.759Z,100828.84
2022-09-12T22:17:25.392Z,100818.88
2022-09-12T22:19:54.654Z,100817.41
2022-09-12T22:22:42.961Z,100812.44
2022-09-12T22:25:15.045Z,100811.47
2022-09-12T22:27:44.391Z,100813.34
2022-09-12T22:30:13.973Z,100819.34
2022-09-12T22:32:43.215Z,100818.47
2022-09-12T22:35:12.492Z,100814.25
2022-09-12T22:37:41.677Z,100807.53
2022-09-12T22:40:14.432Z,100802.56
2022-09-12T22:42:43.682Z,100800.28
2022-09-12T22:45:13.486Z,100806.59
2022-09-12T22:47:42.750Z,100796.84
2022-09-12T22:50:11.883Z,100803.03
2022-09-12T22:52:41.504Z,100792.38
2022-09-12T22:55:10.859Z,100797.00
2022-09-12T22:57:40.642Z,100791.97
2022-09-12T23:00:14.135Z,100789.59
2022-09-12T23:02:44.398Z,100788.94
2022-09-12T23:05:14.079Z,100796.78
2022-09-12T23:07:45.912Z,100786.16
2022-09-12T23:10:18.129Z,100787.88
2022-09-12T23:12:47.458Z,100782.84
2022-09-12T23:15:16.711Z,100796.44
2022-09-12T23:17:46.775Z,100790.69
2022-09-12T23:20:16.102Z,100783.22
2022-09-12T23:22:45.250Z,100791.94
2022-09-12T23:25:14.717Z,100783.44
2022-09-12T23:27:44.207Z,100775.38
2022-09-12T23:30:21.346Z,100778.34
2022-09-12T23:32:50.727Z,100774.91
2022-09-12T23:35:24.706Z,100781.41
2022-09-12T23:37:56.487Z,100778.28
2022-09-12T23:40:28.735Z,100772.31
2022-09-12T23:42:57.981Z,100777.50
2022-09-12T23:45:27.579Z,100769.34
2022-09-12T23:47:56.887Z,100771.66
2022-09-12T23:50:26.269Z,100776.94
2022-09-12T23:52:58.457Z,100775.41
2022-09-12T23:55:27.990Z,100771.88
2022-09-12T23:57:57.081Z,100772.84
